sensor_id;sensor_type;location;lat;lon;timestamp;temperature;humidity
16229;DHT22;8222;51.462;12.630;2022-10-18T00:00:00;17.10;99.90
16229;DHT22;8222;51.462;12.630;2022-10-18T00:02:27;17.20;99.90
16229;DHT22;8222;51.462;12.630;2022-10-18T00:04:53;17.20;99.90
16229;DHT22;8222;51.462;12.630;2022-10-18T00:07:19;17.10;99.90
16229;DHT22;8222;51.462;12.630;2022-10-18T00:09:44;17.00;99.90
16229;DHT22;8222;51.462;12.630;2022-10-18T00:12:10;16.90;99.90
16229;DHT22;8222;51.462;12.630;2022-10-18T00:14:35;16.80;99.90
16229;DHT22;8222;51.462;12.630;2022-10-18T00:17:03;16.90;99.90
16229;DHT22;8222;51.462;12.630;2022-10-18T00:19:31;16.90;99.90
16229;DHT22;8222;51.462;12.630;2022-10-18T00:21:58;16.80;99.90
16229;DHT22;8222;51.462;12.630;2022-10-18T00:24:24;16.70;99.90
16229;DHT22;8222;51.462;12.630;2022-10-18T00:26:50;16.70;99.90
16229;DHT22;8222;51.462;12.630;2022-10-18T00:29:17;16.70;99.90
16229;DHT22;8222;51.462;12.630;2022-10-18T00:31:45;16.70;99.90
16229;DHT22;8222;51.462;12.630;2022-10-18T00:34:15;16.70;99.90
16229;DHT22;8222;51.462;12.630;2022-10-18T00:36:42;16.70;99.90
16229;DHT22;8222;51.462;12.630;2022-10-18T00:39:11;16.70;99.90
16229;DHT22;8222;51.462;12.630;2022-10-18T00:41:38;16.70;99.90
16229;DHT22;8222;51.462;12.630;2022-10-18T00:46:38;16.70;99.90
16229;DHT22;8222;51.462;12.630;2022-10-18T00:49:10;16.70;99.90
16229;DHT22;8222;51.462;12.630;2022-10-18T00:52:07;16.70;99.90
16229;DHT22;8222;51.462;12.630;2022-10-18T00:54:37;16.70;99.90
16229;DHT22;8222;51.462;12.630;2022-10-18T00:57:05;16.70;99.90
16229;DHT22;8222;51.462;12.630;2022-10-18T00:59:32;16.70;99.90
16229;DHT22;8222;51.462;12.630;2022-10-18T01:02:02;16.70;99.90
16229;DHT22;8222;51.462;12.630;2022-10-18T01:04:28;16.70;99.90
16229;DHT22;8222;51.462;12.630;2022-10-18T01:10:07;16.70;99.90
16229;DHT22;8222;51.462;12.630;2022-10-18T01:29:26;16.90;99.90
16229;DHT22;8222;51.462;12.630;2022-10-18T01:32:16;16.90;99.90
16229;DHT22;8222;51.462;12.630;2022-10-18T01:34:49;17.00;99.90
16229;DHT22;8222;51.462;12.630;2022-10-18T01:37:18;17.10;99.90
16229;DHT22;8222;51.462;12.630;2022-10-18T01:39:50;17.20;99.90
16229;DHT22;8222;51.462;12.630;2022-10-18T01:42:18;17.20;99.90
16229;DHT22;8222;51.462;12.630;2022-10-18T01:44:48;17.10;99.90
16229;DHT22;8222;51.462;12.630;2022-10-18T01:47:17;17.20;99.90
16229;DHT22;8222;51.462;12.630;2022-10-18T01:49:45;17.20;99.90
16229;DHT22;8222;51.462;12.630;2022-10-18T01:52:15;17.10;99.90
16229;DHT22;8222;51.462;12.630;2022-10-18T01:54:45;17.10;99.90
16229;DHT22;8222;51.462;12.630;2022-10-18T01:57:37;17.20;99.90
16229;DHT22;8222;51.462;12.630;2022-10-18T02:00:23;17.20;99.90
16229;DHT22;8222;51.462;12.630;2022-10-18T02:03:04;17.30;99.90
16229;DHT22;8222;51.462;12.630;2022-10-18T02:05:45;17.30;99.90
16229;DHT22;8222;51.462;12.630;2022-10-18T02:11:05;17.40;99.90
16229;DHT22;8222;51.462;12.630;2022-10-18T02:13:35;17.40;99.90
16229;DHT22;8222;51.462;12.630;2022-10-18T02:16:07;17.40;99.90
16229;DHT22;8222;51.462;12.630;2022-10-18T02:18:37;17.40;99.90
16229;DHT22;8222;51.462;12.630;2022-10-18T02:21:07;17.40;99.90
16229;DHT22;8222;51.462;12.630;2022-10-18T02:23:35;17.50;99.90
16229;DHT22;8222;51.462;12.630;2022-10-18T02:26:02;17.30;99.90
16229;DHT22;8222;51.462;12.630;2022-10-18T02:28:30;17.30;99.90
16229;DHT22;8222;51.462;12.630;2022-10-18T02:34:20;17.40;99.90
16229;DHT22;8222;51.462;12.630;2022-10-18T02:36:52;17.50;99.90
16229;DHT22;8222;51.462;12.630;2022-10-18T02:39:23;17.60;99.90
16229;DHT22;8222;51.462;12.630;2022-10-18T02:41:49;17.60;99.90
16229;DHT22;8222;51.462;12.630;2022-10-18T02:44:15;17.60;99.90
16229;DHT22;8222;51.462;12.630;2022-10-18T02:46:45;17.70;99.90
16229;DHT22;8222;51.462;12.630;2022-10-18T02:49:13;17.60;99.90
16229;DHT22;8222;51.462;12.630;2022-10-18T02:51:39;17.70;99.90
16229;DHT22;8222;51.462;12.630;2022-10-18T02:54:05;17.70;99.90
16229;DHT22;8222;51.462;12.630;2022-10-18T02:56:33;17.70;99.90
16229;DHT22;8222;51.462;12.630;2022-10-18T02:58:59;17.60;99.90
16229;DHT22;8222;51.462;12.630;2022-10-18T03:01:25;17.70;99.90
16229;DHT22;8222;51.462;12.630;2022-10-18T03:03:50;17.70;99.90
16229;DHT22;8222;51.462;12.630;2022-10-18T03:06:16;17.70;99.90
16229;DHT22;8222;51.462;12.630;2022-10-18T03:08:44;17.80;99.90
16229;DHT22;8222;51.462;12.630;2022-10-18T03:11:13;17.70;99.90
16229;DHT22;8222;51.462;12.630;2022-10-18T03:13:40;17.80;99.90
16229;DHT22;8222;51.462;12.630;2022-10-18T03:16:06;17.80;99.90
16229;DHT22;8222;51.462;12.630;2022-10-18T03:18:31;17.80;99.90
16229;DHT22;8222;51.462;12.630;2022-10-18T03:20:57;17.80;99.90
16229;DHT22;8222;51.462;12.630;2022-10-18T03:23:23;17.80;99.90
16229;DHT22;8222;51.462;12.630;2022-10-18T03:25:48;17.90;99.90
16229;DHT22;8222;51.462;12.630;2022-10-18T03:28:14;17.80;99.90
16229;DHT22;8222;51.462;12.630;2022-10-18T03:30:40;17.90;99.90
16229;DHT22;8222;51.462;12.630;2022-10-18T03:33:07;17.80;99.90
16229;DHT22;8222;51.462;12.630;2022-10-18T03:35:33;17.90;99.90
16229;DHT22;8222;51.462;12.630;2022-10-18T03:38:00;17.70;99.90
16229;DHT22;8222;51.462;12.630;2022-10-18T03:40:26;17.70;99.90
16229;DHT22;8222;51.462;12.630;2022-10-18T03:42:52;17.80;99.90
16229;DHT22;8222;51.462;12.630;2022-10-18T03:45:17;17.80;99.90
16229;DHT22;8222;51.462;12.630;2022-10-18T03:47:45;17.90;99.90
16229;DHT22;8222;51.462;12.630;2022-10-18T03:50:13;17.80;99.90
16229;DHT22;8222;51.462;12.630;2022-10-18T03:52:42;17.80;99.90
16229;DHT22;8222;51.462;12.630;2022-10-18T03:55:08;17.80;99.90
16229;DHT22;8222;51.462;12.630;2022-10-18T03:57:34;17.80;99.90
16229;DHT22;8222;51.462;12.630;2022-10-18T03:59:59;17.80;99.90
16229;DHT22;8222;51.462;12.630;2022-10-18T04:02:25;17.90;99.90
16229;DHT22;8222;51.462;12.630;2022-10-18T04:04:51;17.90;99.90
16229;DHT22;8222;51.462;12.630;2022-10-18T04:07:18;17.90;99.90
16229;DHT22;8222;51.462;12.630;2022-10-18T04:09:44;18.00;99.90
16229;DHT22;8222;51.462;12.630;2022-10-18T04:12:12;18.00;99.90
16229;DHT22;8222;51.462;12.630;2022-10-18T04:14:37;18.00;99.90
16229;DHT22;8222;51.462;12.630;2022-10-18T04:17:03;18.00;99.90
16229;DHT22;8222;51.462;12.630;2022-10-18T04:19:29;18.00;99.90
16229;DHT22;8222;51.462;12.630;2022-10-18T04:21:56;18.00;99.90
16229;DHT22;8222;51.462;12.630;2022-10-18T04:24:22;18.00;99.90
16229;DHT22;8222;51.462;12.630;2022-10-18T04:26:48;18.00;99.90
16229;DHT22;8222;51.462;12.630;2022-10-18T04:29:13;18.00;99.90
16229;DHT22;8222;51.462;12.630;2022-10-18T04:31:41;18.10;99.90
16229;DHT22;8222;51.462;12.630;2022-10-18T04:34:08;18.00;99.90
16229;DHT22;8222;51.462;12.630;2022-10-18T04:36:34;18.00;99.90
16229;DHT22;8222;51.462;12.630;2022-10-18T04:38:59;18.00;99.90
16229;DHT22;8222;51.462;12.630;2022-10-18T04:41:25;18.00;99.90
16229;DHT22;8222;51.462;12.630;2022-10-18T04:43:50;18.00;99.90
16229;DHT22;8222;51.462;12.630;2022-10-18T04:46:18;18.00;99.90
16229;DHT22;8222;51.462;12.630;2022-10-18T04:48:43;18.10;99.90
16229;DHT22;8222;51.462;12.630;2022-10-18T04:51:09;18.00;99.90
16229;DHT22;8222;51.462;12.630;2022-10-18T04:53:35;18.00;99.90
16229;DHT22;8222;51.462;12.630;2022-10-18T04:56:02;18.00;99.90
16229;DHT22;8222;51.462;12.630;2022-10-18T04:58:31;18.00;99.90
16229;DHT22;8222;51.462;12.630;2022-10-18T05:00:57;18.10;99.90
16229;DHT22;8222;51.462;12.630;2022-10-18T05:03:22;17.90;99.90
16229;DHT22;8222;51.462;12.630;2022-10-18T05:05:48;17.90;99.90
16229;DHT22;8222;51.462;12.630;2022-10-18T05:08:14;17.90;99.90
16229;DHT22;8222;51.462;12.630;2022-10-18T05:10:40;17.90;99.90
16229;DHT22;8222;51.462;12.630;2022-10-18T05:13:09;17.90;99.90
16229;DHT22;8222;51.462;12.630;2022-10-18T05:15:34;18.00;99.90
16229;DHT22;8222;51.462;12.630;2022-10-18T05:18:00;17.90;99.90
16229;DHT22;8222;51.462;12.630;2022-10-18T05:20:26;17.90;99.90
16229;DHT22;8222;51.462;12.630;2022-10-18T05:22:51;17.90;99.90
16229;DHT22;8222;51.462;12.630;2022-10-18T05:25:19;17.90;99.90
16229;DHT22;8222;51.462;12.630;2022-10-18T05:27:44;18.00;99.90
16229;DHT22;8222;51.462;12.630;2022-10-18T05:30:11;17.90;99.90
16229;DHT22;8222;51.462;12.630;2022-10-18T05:32:39;17.70;99.90
16229;DHT22;8222;51.462;12.630;2022-10-18T05:35:10;17.70;99.90
16229;DHT22;8222;51.462;12.630;2022-10-18T05:37:35;17.70;99.90
16229;DHT22;8222;51.462;12.630;2022-10-18T05:40:03;17.70;99.90
16229;DHT22;8222;51.462;12.630;2022-10-18T05:42:29;17.60;99.90
16229;DHT22;8222;51.462;12.630;2022-10-18T05:44:58;17.60;99.90
16229;DHT22;8222;51.462;12.630;2022-10-18T05:47:24;17.60;99.90
16229;DHT22;8222;51.462;12.630;2022-10-18T05:49:49;17.70;99.90
16229;DHT22;8222;51.462;12.630;2022-10-18T05:52:15;17.50;99.90
16229;DHT22;8222;51.462;12.630;2022-10-18T05:54:41;17.50;99.90
16229;DHT22;8222;51.462;12.630;2022-10-18T05:57:07;17.50;99.90
16229;DHT22;8222;51.462;12.630;2022-10-18T05:59:35;17.60;99.90
16229;DHT22;8222;51.462;12.630;2022-10-18T06:02:04;17.60;99.90
16229;DHT22;8222;51.462;12.630;2022-10-18T06:04:29;17.60;99.90
16229;DHT22;8222;51.462;12.630;2022-10-18T06:06:57;17.60;99.90
16229;DHT22;8222;51.462;12.630;2022-10-18T06:09:25;17.60;99.90
16229;DHT22;8222;51.462;12.630;2022-10-18T06:11:55;17.60;99.90
16229;DHT22;8222;51.462;12.630;2022-10-18T06:14:22;17.60;99.90
16229;DHT22;8222;51.462;12.630;2022-10-18T06:16:50;17.70;99.90
16229;DHT22;8222;51.462;12.630;2022-10-18T06:19:16;17.70;99.90
16229;DHT22;8222;51.462;12.630;2022-10-18T06:21:42;17.70;99.90
16229;DHT22;8222;51.462;12.630;2022-10-18T06:24:08;17.70;99.90
16229;DHT22;8222;51.462;12.630;2022-10-18T06:26:39;17.70;99.90
16229;DHT22;8222;51.462;12.630;2022-10-18T06:29:05;17.70;99.90
16229;DHT22;8222;51.462;12.630;2022-10-18T06:31:31;17.70;99.90
16229;DHT22;8222;51.462;12.630;2022-10-18T06:33:56;17.80;99.90
16229;DHT22;8222;51.462;12.630;2022-10-18T06:36:23;17.80;99.90
16229;DHT22;8222;51.462;12.630;2022-10-18T06:38:49;17.80;99.90
16229;DHT22;8222;51.462;12.630;2022-10-18T06:41:15;17.70;99.90
16229;DHT22;8222;51.462;12.630;2022-10-18T06:43:50;17.80;99.90
16229;DHT22;8222;51.462;12.630;2022-10-18T06:46:19;17.80;99.90
16229;DHT22;8222;51.462;12.630;2022-10-18T06:48:45;17.80;99.90
16229;DHT22;8222;51.462;12.630;2022-10-18T06:51:11;17.80;99.90
16229;DHT22;8222;51.462;12.630;2022-10-18T06:53:40;17.90;99.90
16229;DHT22;8222;51.462;12.630;2022-10-18T06:56:09;17.90;99.90
16229;DHT22;8222;51.462;12.630;2022-10-18T06:58:37;17.90;99.90
16229;DHT22;8222;51.462;12.630;2022-10-18T07:01:11;17.90;99.90
16229;DHT22;8222;51.462;12.630;2022-10-18T07:03:37;18.00;99.90
16229;DHT22;8222;51.462;12.630;2022-10-18T07:06:07;18.00;99.90
16229;DHT22;8222;51.462;12.630;2022-10-18T07:08:33;18.00;99.90
16229;DHT22;8222;51.462;12.630;2022-10-18T07:11:01;18.10;99.90
16229;DHT22;8222;51.462;12.630;2022-10-18T07:13:28;18.00;99.90
16229;DHT22;8222;51.462;12.630;2022-10-18T07:18:34;18.00;99.90
16229;DHT22;8222;51.462;12.630;2022-10-18T07:21:01;18.10;99.90
16229;DHT22;8222;51.462;12.630;2022-10-18T07:23:27;18.10;99.90
16229;DHT22;8222;51.462;12.630;2022-10-18T07:25:54;18.00;99.90
16229;DHT22;8222;51.462;12.630;2022-10-18T07:28:20;18.10;99.90
16229;DHT22;8222;51.462;12.630;2022-10-18T07:30:48;18.10;99.90
16229;DHT22;8222;51.462;12.630;2022-10-18T07:33:14;18.10;99.90
16229;DHT22;8222;51.462;12.630;2022-10-18T07:35:39;18.00;99.90
16229;DHT22;8222;51.462;12.630;2022-10-18T07:38:05;18.00;99.90
16229;DHT22;8222;51.462;12.630;2022-10-18T07:40:31;18.00;99.90
16229;DHT22;8222;51.462;12.630;2022-10-18T07:43:00;18.00;99.90
16229;DHT22;8222;51.462;12.630;2022-10-18T07:45:28;18.00;99.90
16229;DHT22;8222;51.462;12.630;2022-10-18T07:47:57;18.00;99.90
16229;DHT22;8222;51.462;12.630;2022-10-18T07:50:23;17.80;99.90
16229;DHT22;8222;51.462;12.630;2022-10-18T07:52:49;17.80;99.90
16229;DHT22;8222;51.462;12.630;2022-10-18T07:55:15;17.70;99.90
16229;DHT22;8222;51.462;12.630;2022-10-18T07:57:40;17.60;99.90
16229;DHT22;8222;51.462;12.630;2022-10-18T08:00:06;17.50;99.90
16229;DHT22;8222;51.462;12.630;2022-10-18T08:02:34;17.40;99.90
16229;DHT22;8222;51.462;12.630;2022-10-18T08:04:59;17.20;99.90
16229;DHT22;8222;51.462;12.630;2022-10-18T08:07:25;17.10;99.90
16229;DHT22;8222;51.462;12.630;2022-10-18T08:09:51;17.10;99.90
16229;DHT22;8222;51.462;12.630;2022-10-18T08:12:16;17.00;99.90
16229;DHT22;8222;51.462;12.630;2022-10-18T08:14:42;17.00;99.90
16229;DHT22;8222;51.462;12.630;2022-10-18T08:17:08;16.80;99.90
16229;DHT22;8222;51.462;12.630;2022-10-18T08:19:33;16.70;99.90
16229;DHT22;8222;51.462;12.630;2022-10-18T08:22:01;16.60;99.90
16229;DHT22;8222;51.462;12.630;2022-10-18T08:24:28;16.60;99.90
16229;DHT22;8222;51.462;12.630;2022-10-18T08:26:54;16.50;99.90
16229;DHT22;8222;51.462;12.630;2022-10-18T08:29:20;16.40;99.90
16229;DHT22;8222;51.462;12.630;2022-10-18T08:31:45;16.50;99.90
16229;DHT22;8222;51.462;12.630;2022-10-18T08:34:13;16.40;99.90
16229;DHT22;8222;51.462;12.630;2022-10-18T08:36:39;16.50;99.90
16229;DHT22;8222;51.462;12.630;2022-10-18T08:39:06;16.40;99.90
16229;DHT22;8222;51.462;12.630;2022-10-18T08:46:44;16.60;99.90
16229;DHT22;8222;51.462;12.630;2022-10-18T08:49:36;16.50;99.90
16229;DHT22;8222;51.462;12.630;2022-10-18T08:52:13;16.50;99.90
16229;DHT22;8222;51.462;12.630;2022-10-18T08:55:13;16.60;99.90
16229;DHT22;8222;51.462;12.630;2022-10-18T08:57:45;16.80;99.90
16229;DHT22;8222;51.462;12.630;2022-10-18T09:05:44;16.60;99.90
16229;DHT22;8222;51.462;12.630;2022-10-18T09:14:21;16.60;99.90
16229;DHT22;8222;51.462;12.630;2022-10-18T09:22:15;16.70;99.90
16229;DHT22;8222;51.462;12.630;2022-10-18T09:24:51;16.70;99.90
16229;DHT22;8222;51.462;12.630;2022-10-18T09:27:21;16.70;99.90
16229;DHT22;8222;51.462;12.630;2022-10-18T09:35:56;16.90;99.90
16229;DHT22;8222;51.462;12.630;2022-10-18T09:38:26;17.00;99.90
16229;DHT22;8222;51.462;12.630;2022-10-18T09:41:02;17.00;99.90
16229;DHT22;8222;51.462;12.630;2022-10-18T09:43:49;17.00;99.90
16229;DHT22;8222;51.462;12.630;2022-10-18T09:46:17;17.20;99.90
16229;DHT22;8222;51.462;12.630;2022-10-18T09:49:18;17.20;99.90
16229;DHT22;8222;51.462;12.630;2022-10-18T09:51:50;17.30;99.90
16229;DHT22;8222;51.462;12.630;2022-10-18T09:57:15;17.50;99.90
16229;DHT22;8222;51.462;12.630;2022-10-18T09:59:48;17.60;99.90
16229;DHT22;8222;51.462;12.630;2022-10-18T10:02:18;17.40;99.90
16229;DHT22;8222;51.462;12.630;2022-10-18T10:04:46;17.50;99.90
16229;DHT22;8222;51.462;12.630;2022-10-18T10:07:18;17.70;99.90
16229;DHT22;8222;51.462;12.630;2022-10-18T10:12:35;17.80;99.90
16229;DHT22;8222;51.462;12.630;2022-10-18T10:15:23;18.00;99.90
16229;DHT22;8222;51.462;12.630;2022-10-18T10:18:05;18.20;99.90
16229;DHT22;8222;51.462;12.630;2022-10-18T10:20:46;18.40;99.90
16229;DHT22;8222;51.462;12.630;2022-10-18T10:23:23;18.60;99.90
16229;DHT22;8222;51.462;12.630;2022-10-18T10:25:54;18.70;99.90
16229;DHT22;8222;51.462;12.630;2022-10-18T10:28:25;18.70;99.90
16229;DHT22;8222;51.462;12.630;2022-10-18T10:30:52;18.80;99.90
16229;DHT22;8222;51.462;12.630;2022-10-18T10:33:35;18.80;99.90
16229;DHT22;8222;51.462;12.630;2022-10-18T10:36:05;18.80;99.90
16229;DHT22;8222;51.462;12.630;2022-10-18T10:38:39;18.70;99.90
16229;DHT22;8222;51.462;12.630;2022-10-18T10:41:20;18.60;99.90
16229;DHT22;8222;51.462;12.630;2022-10-18T10:43:48;18.70;99.90
16229;DHT22;8222;51.462;12.630;2022-10-18T10:46:16;18.60;99.90
16229;DHT22;8222;51.462;12.630;2022-10-18T10:48:57;18.80;99.90
16229;DHT22;8222;51.462;12.630;2022-10-18T10:51:35;18.80;99.90
16229;DHT22;8222;51.462;12.630;2022-10-18T10:54:29;18.90;99.90
16229;DHT22;8222;51.462;12.630;2022-10-18T11:04:44;19.00;99.90
16229;DHT22;8222;51.462;12.630;2022-10-18T11:07:17;19.00;99.90
16229;DHT22;8222;51.462;12.630;2022-10-18T11:12:33;18.90;99.90
16229;DHT22;8222;51.462;12.630;2022-10-18T11:15:34;18.80;99.90
16229;DHT22;8222;51.462;12.630;2022-10-18T11:18:28;18.80;99.90
16229;DHT22;8222;51.462;12.630;2022-10-18T11:21:01;18.80;99.90
16229;DHT22;8222;51.462;12.630;2022-10-18T11:23:34;18.80;99.90
16229;DHT22;8222;51.462;12.630;2022-10-18T11:26:35;18.80;99.90
16229;DHT22;8222;51.462;12.630;2022-10-18T11:37:09;18.70;99.90
16229;DHT22;8222;51.462;12.630;2022-10-18T11:43:09;18.90;99.90
16229;DHT22;8222;51.462;12.630;2022-10-18T11:56:39;19.00;99.90
16229;DHT22;8222;51.462;12.630;2022-10-18T12:04:33;19.10;99.90
16229;DHT22;8222;51.462;12.630;2022-10-18T12:06:59;19.10;99.90
16229;DHT22;8222;51.462;12.630;2022-10-18T12:09:38;19.00;99.90
16229;DHT22;8222;51.462;12.630;2022-10-18T12:12:34;18.90;99.90
16229;DHT22;8222;51.462;12.630;2022-10-18T12:17:40;18.70;99.90
16229;DHT22;8222;51.462;12.630;2022-10-18T12:20:56;18.70;99.90
16229;DHT22;8222;51.462;12.630;2022-10-18T12:23:44;18.60;99.90
16229;DHT22;8222;51.462;12.630;2022-10-18T12:26:13;18.50;99.90
16229;DHT22;8222;51.462;12.630;2022-10-18T12:29:05;18.40;99.90
16229;DHT22;8222;51.462;12.630;2022-10-18T12:31:37;18.20;99.90
16229;DHT22;8222;51.462;12.630;2022-10-18T12:42:23;18.60;99.90
16229;DHT22;8222;51.462;12.630;2022-10-18T12:45:03;18.70;99.90
16229;DHT22;8222;51.462;12.630;2022-10-18T12:47:30;18.80;99.90
16229;DHT22;8222;51.462;12.630;2022-10-18T12:50:01;18.80;99.90
16229;DHT22;8222;51.462;12.630;2022-10-18T12:52:29;20.20;99.90
16229;DHT22;8222;51.462;12.630;2022-10-18T13:18:53;19.50;99.90
16229;DHT22;8222;51.462;12.630;2022-10-18T13:24:44;19.80;99.90
16229;DHT22;8222;51.462;12.630;2022-10-18T13:35:50;20.30;99.90
16229;DHT22;8222;51.462;12.630;2022-10-18T13:41:17;20.50;99.90
16229;DHT22;8222;51.462;12.630;2022-10-18T14:05:51;20.10;99.90
16229;DHT22;8222;51.462;12.630;2022-10-18T14:11:21;20.10;99.90
16229;DHT22;8222;51.462;12.630;2022-10-18T14:16:46;20.00;99.90
16229;DHT22;8222;51.462;12.630;2022-10-18T14:19:18;20.10;99.90
16229;DHT22;8222;51.462;12.630;2022-10-18T14:22:03;20.00;99.90
16229;DHT22;8222;51.462;12.630;2022-10-18T14:24:31;19.90;99.90
16229;DHT22;8222;51.462;12.630;2022-10-18T14:27:18;20.00;99.90
16229;DHT22;8222;51.462;12.630;2022-10-18T14:29:45;20.10;99.90
16229;DHT22;8222;51.462;12.630;2022-10-18T14:32:27;20.30;99.90
16229;DHT22;8222;51.462;12.630;2022-10-18T14:34:55;20.30;99.90
16229;DHT22;8222;51.462;12.630;2022-10-18T14:37:48;20.30;99.90
16229;DHT22;8222;51.462;12.630;2022-10-18T14:40:37;20.40;99.90
16229;DHT22;8222;51.462;12.630;2022-10-18T14:43:17;20.40;99.90
16229;DHT22;8222;51.462;12.630;2022-10-18T14:45:43;20.40;99.90
16229;DHT22;8222;51.462;12.630;2022-10-18T14:48:15;20.30;99.90
16229;DHT22;8222;51.462;12.630;2022-10-18T14:50:42;20.20;99.90
16229;DHT22;8222;51.462;12.630;2022-10-18T14:53:15;20.20;99.90
16229;DHT22;8222;51.462;12.630;2022-10-18T14:55:42;20.10;99.90
16229;DHT22;8222;51.462;12.630;2022-10-18T14:58:17;20.20;99.90
16229;DHT22;8222;51.462;12.630;2022-10-18T15:00:44;20.00;99.90
16229;DHT22;8222;51.462;12.630;2022-10-18T15:03:14;19.90;99.90
16229;DHT22;8222;51.462;12.630;2022-10-18T15:08:20;19.70;99.90
16229;DHT22;8222;51.462;12.630;2022-10-18T15:10:50;19.60;99.90
16229;DHT22;8222;51.462;12.630;2022-10-18T15:13:16;19.60;99.90
16229;DHT22;8222;51.462;12.630;2022-10-18T15:15:43;19.60;99.90
16229;DHT22;8222;51.462;12.630;2022-10-18T15:18:20;19.40;99.90
16229;DHT22;8222;51.462;12.630;2022-10-18T15:21:06;19.30;99.90
16229;DHT22;8222;51.462;12.630;2022-10-18T15:23:36;19.30;99.90
16229;DHT22;8222;51.462;12.630;2022-10-18T15:26:05;19.30;99.90
16229;DHT22;8222;51.462;12.630;2022-10-18T15:28:35;19.30;99.90
16229;DHT22;8222;51.462;12.630;2022-10-18T15:31:02;19.40;99.90
16229;DHT22;8222;51.462;12.630;2022-10-18T15:33:30;19.30;99.90
16229;DHT22;8222;51.462;12.630;2022-10-18T15:36:17;19.20;99.90
16229;DHT22;8222;51.462;12.630;2022-10-18T15:38:46;19.20;99.90
16229;DHT22;8222;51.462;12.630;2022-10-18T15:41:35;19.20;99.90
16229;DHT22;8222;51.462;12.630;2022-10-18T15:44:17;19.30;99.90
16229;DHT22;8222;51.462;12.630;2022-10-18T15:46:44;19.10;99.90
16229;DHT22;8222;51.462;12.630;2022-10-18T15:52:30;19.00;99.90
16229;DHT22;8222;51.462;12.630;2022-10-18T15:54:59;18.80;99.90
16229;DHT22;8222;51.462;12.630;2022-10-18T15:57:29;18.70;99.90
16229;DHT22;8222;51.462;12.630;2022-10-18T16:00:11;18.60;99.90
16229;DHT22;8222;51.462;12.630;2022-10-18T16:02:41;18.50;99.90
16229;DHT22;8222;51.462;12.630;2022-10-18T16:05:10;18.40;99.90
16229;DHT22;8222;51.462;12.630;2022-10-18T16:07:38;18.30;99.90
16229;DHT22;8222;51.462;12.630;2022-10-18T16:10:12;18.20;99.90
16229;DHT22;8222;51.462;12.630;2022-10-18T16:12:38;18.00;99.90
16229;DHT22;8222;51.462;12.630;2022-10-18T16:15:04;18.00;99.90
16229;DHT22;8222;51.462;12.630;2022-10-18T16:17:30;18.00;99.90
16229;DHT22;8222;51.462;12.630;2022-10-18T16:19:56;18.00;99.90
16229;DHT22;8222;51.462;12.630;2022-10-18T16:22:22;17.90;99.90
16229;DHT22;8222;51.462;12.630;2022-10-18T16:24:47;17.80;99.90
16229;DHT22;8222;51.462;12.630;2022-10-18T16:27:13;17.80;99.90
16229;DHT22;8222;51.462;12.630;2022-10-18T16:29:39;17.80;99.90
16229;DHT22;8222;51.462;12.630;2022-10-18T16:32:05;17.60;99.90
16229;DHT22;8222;51.462;12.630;2022-10-18T16:34:31;17.60;99.90
16229;DHT22;8222;51.462;12.630;2022-10-18T16:36:59;17.40;99.90
16229;DHT22;8222;51.462;12.630;2022-10-18T16:39:25;17.40;99.90
16229;DHT22;8222;51.462;12.630;2022-10-18T16:41:51;17.30;99.90
16229;DHT22;8222;51.462;12.630;2022-10-18T16:44:17;17.20;99.90
16229;DHT22;8222;51.462;12.630;2022-10-18T16:46:44;17.20;99.90
16229;DHT22;8222;51.462;12.630;2022-10-18T16:49:21;17.10;99.90
16229;DHT22;8222;51.462;12.630;2022-10-18T16:51:48;17.20;99.90
16229;DHT22;8222;51.462;12.630;2022-10-18T16:54:16;17.10;99.90
16229;DHT22;8222;51.462;12.630;2022-10-18T16:56:41;17.20;99.90
16229;DHT22;8222;51.462;12.630;2022-10-18T16:59:20;17.20;99.90
16229;DHT22;8222;51.462;12.630;2022-10-18T17:01:48;17.30;99.90
16229;DHT22;8222;51.462;12.630;2022-10-18T17:04:14;17.30;99.90
16229;DHT22;8222;51.462;12.630;2022-10-18T17:06:39;17.30;99.90
16229;DHT22;8222;51.462;12.630;2022-10-18T17:09:05;17.30;99.90
16229;DHT22;8222;51.462;12.630;2022-10-18T17:11:31;17.30;99.90
16229;DHT22;8222;51.462;12.630;2022-10-18T17:13:56;17.30;99.90
16229;DHT22;8222;51.462;12.630;2022-10-18T17:16:31;17.20;99.90
16229;DHT22;8222;51.462;12.630;2022-10-18T17:18:59;17.20;99.90
16229;DHT22;8222;51.462;12.630;2022-10-18T17:21:26;17.10;99.90
16229;DHT22;8222;51.462;12.630;2022-10-18T17:23:53;17.10;99.90
16229;DHT22;8222;51.462;12.630;2022-10-18T17:26:21;17.00;99.90
16229;DHT22;8222;51.462;12.630;2022-10-18T17:28:54;17.00;99.90
16229;DHT22;8222;51.462;12.630;2022-10-18T17:31:21;17.00;99.90
16229;DHT22;8222;51.462;12.630;2022-10-18T17:33:47;17.00;99.90
16229;DHT22;8222;51.462;12.630;2022-10-18T17:36:12;17.00;99.90
16229;DHT22;8222;51.462;12.630;2022-10-18T17:38:38;16.80;99.90
16229;DHT22;8222;51.462;12.630;2022-10-18T17:41:13;16.80;99.90
16229;DHT22;8222;51.462;12.630;2022-10-18T17:43:41;16.80;99.90
16229;DHT22;8222;51.462;12.630;2022-10-18T17:46:09;16.80;99.90
16229;DHT22;8222;51.462;12.630;2022-10-18T17:48:38;16.70;99.90
16229;DHT22;8222;51.462;12.630;2022-10-18T17:51:08;16.70;99.90
16229;DHT22;8222;51.462;12.630;2022-10-18T17:53:34;16.70;99.90
16229;DHT22;8222;51.462;12.630;2022-10-18T17:56:02;16.50;99.90
16229;DHT22;8222;51.462;12.630;2022-10-18T17:58:28;16.50;99.90
16229;DHT22;8222;51.462;12.630;2022-10-18T18:00:53;16.50;99.90
16229;DHT22;8222;51.462;12.630;2022-10-18T18:03:19;16.50;99.90
16229;DHT22;8222;51.462;12.630;2022-10-18T18:05:48;16.60;99.90
16229;DHT22;8222;51.462;12.630;2022-10-18T18:08:14;16.50;99.90
16229;DHT22;8222;51.462;12.630;2022-10-18T18:10:40;16.50;99.90
16229;DHT22;8222;51.462;12.630;2022-10-18T18:13:06;16.40;99.90
16229;DHT22;8222;51.462;12.630;2022-10-18T18:15:36;16.50;99.90
16229;DHT22;8222;51.462;12.630;2022-10-18T18:18:02;16.40;99.90
16229;DHT22;8222;51.462;12.630;2022-10-18T18:20:29;16.40;99.90
16229;DHT22;8222;51.462;12.630;2022-10-18T18:22:55;16.40;99.90
16229;DHT22;8222;51.462;12.630;2022-10-18T18:25:23;16.40;99.90
16229;DHT22;8222;51.462;12.630;2022-10-18T18:27:49;16.40;99.90
16229;DHT22;8222;51.462;12.630;2022-10-18T18:30:15;16.40;99.90
16229;DHT22;8222;51.462;12.630;2022-10-18T18:32:42;16.40;99.90
16229;DHT22;8222;51.462;12.630;2022-10-18T18:35:07;16.40;99.90
16229;DHT22;8222;51.462;12.630;2022-10-18T18:37:33;16.40;99.90
16229;DHT22;8222;51.462;12.630;2022-10-18T18:40:02;16.30;99.90
16229;DHT22;8222;51.462;12.630;2022-10-18T18:42:27;16.30;99.90
16229;DHT22;8222;51.462;12.630;2022-10-18T18:44:53;16.40;99.90
16229;DHT22;8222;51.462;12.630;2022-10-18T18:47:19;16.40;99.90
16229;DHT22;8222;51.462;12.630;2022-10-18T18:49:47;16.50;99.90
16229;DHT22;8222;51.462;12.630;2022-10-18T18:52:13;16.50;99.90